Latest Weather Observations for Mount Gellibrand

IDV60801

Issued at 9:32 pm EST Wednesday 28 September 2016 (issued every 30 minutes, with the page automatically refreshed every 10 minutes)

About weather observations | Map of weather stations | Latest weather observations for VIC | Other Formats
Station Details ID: 090035 Name: MOUNT GELLIBRAND Lat: -38.23 Lon: 143.79 Height: 261.0 m
Data from the previous 72 hours. | See also: Recent months at Mount Gellibrand
Date/Time
EST
Temp
°C
App
Temp
°C
Dew
Point
°C
Rel
Hum
%
Delta-T
°C
Wind Press
QNH
hPa
Press
MSL
hPa
Rain since
9am
mm
Dir  Spd
km/h
Gust
km/h
Spd
kts
Gust
kts
28/09:30pm 10.2 2.8 9.9 98 0.2 E 39 44 21 24 996.3 996.3 1.8
28/09:00pm 10.6 5.6 9.4 92 0.6 ENE 26 32 14 17 997.9 998.0 0.6
28/08:30pm 11.0 6.6 9.1 88 1.0 NE 22 24 12 13 998.9 999.0 0.0
28/08:00pm 11.2 5.6 8.8 85 1.2 ENE 28 33 15 18 998.6 998.7 0.0
28/07:30pm 11.4 5.1 8.8 84 1.3 NE 32 39 17 21 998.4 998.5 0.0
28/07:00pm 11.4 5.4 8.6 83 1.4 ENE 30 35 16 19 998.6 998.7 0.0
28/06:30pm 12.4 5.3 7.9 74 2.2 NE 35 44 19 24 998.7 998.8 0.0
28/06:00pm 12.8 5.6 7.5 70 2.6 NE 35 43 19 23 999.2 999.3 0.0
28/05:30pm 12.9 5.7 7.6 70 2.6 NNE 35 43 19 23 999.7 999.8 0.0
28/05:00pm 13.5 6.4 7.9 69 2.8 NNE 35 43 19 23 1000.2 1000.2 0.0
28/04:30pm 13.9 6.5 8.3 69 2.8 NNE 37 44 20 24 1000.7 1000.7 0.0
28/04:00pm 14.5 7.0 8.0 65 3.3 NNE 37 44 20 24 1001.1 1001.2 0.0
28/03:30pm 15.2 8.5 8.2 63 3.6 NNE 33 41 18 22 1001.0 1001.1 0.0
28/03:00pm 15.5 8.8 8.0 61 3.8 NNE 33 43 18 23 1001.6 1001.7 0.0
28/02:30pm 15.7 9.2 8.9 64 3.5 NE 33 43 18 23 1002.1 1002.2 0.0
28/02:00pm 16.3 9.9 9.3 63 3.7 NE 33 44 18 24 1002.8 1002.9 0.0
28/01:30pm 15.5 9.2 9.0 65 3.4 NNE 32 43 17 23 1004.5 1004.6 0.0
28/01:00pm 15.3 8.8 8.8 65 3.4 NE 33 43 18 23 1005.1 1005.2 0.0
28/12:30pm 15.0 9.4 8.9 67 3.2 NNE 28 37 15 20 1006.5 1006.6 0.0
28/12:00pm 14.5 8.3 8.0 65 3.3 NNE 30 37 16 20 1007.3 1007.4 0.0
28/11:30am 14.2 8.1 8.2 67 3.0 N 30 35 16 19 1008.3 1008.4 0.0
28/11:00am 14.8 9.3 9.2 69 2.9 N 28 35 15 19 1009.2 1009.3 0.0
28/10:30am 14.3 9.9 9.1 71 2.7 NNW 22 35 12 19 1010.0 1010.1 0.0
28/10:00am 13.3 9.9 7.5 68 2.9 N 15 22 8 12 1010.3 1010.4 0.0
28/09:30am 13.1 9.8 9.4 78 1.9 NNW 17 20 9 11 1010.6 1010.8 0.0
28/09:00am 11.7 8.3 9.1 84 1.3 N 17 20 9 11 1010.7 1010.9 1.6
28/08:30am 9.9 6.6 8.0 88 0.9 NNW 15 20 8 11 1011.1 1011.3 1.6
28/08:00am 8.3 3.8 6.3 87 0.9 NNW 19 24 10 13 1011.5 1011.7 1.6
28/07:30am 7.9 3.1 5.5 85 1.1 NNW 20 26 11 14 1011.5 1011.7 1.6
28/07:00am 7.7 3.1 5.7 87 0.9 NNW 19 24 10 13 1011.5 1011.7 1.6
28/06:30am 7.5 2.4 6.0 90 0.7 NNW 22 28 12 15 1011.4 1011.6 1.6
28/06:00am 7.0 1.8 5.6 91 0.6 NNW 22 28 12 15 1011.3 1011.5 1.6
28/05:30am 7.0 1.9 6.1 94 0.4 NNW 22 26 12 14 1011.1 1011.3 1.6
28/05:00am 6.7 1.3 6.3 97 0.2 NNW 24 28 13 15 1011.1 1011.3 1.6
28/04:30am 6.4 1.4 6.3 99 0.0 NW 22 24 12 13 1011.1 1011.3 1.6
28/04:00am 6.2 1.5 6.1 99 0.0 NW 20 24 11 13 1011.2 1011.4 1.6
28/03:30am 6.4 1.3 6.1 98 0.1 NW 22 26 12 14 1011.1 1011.3 1.6
28/03:00am 6.4 1.3 6.1 98 0.1 NW 22 24 12 13 1011.1 1011.3 1.6
28/02:30am 6.7 1.7 6.4 98 0.1 NW 22 24 12 13 1011.2 1011.4 1.6
28/02:00am 6.2 1.5 5.9 98 0.1 NW 20 24 11 13 1011.5 1011.7 1.6
28/01:30am 6.5 2.0 6.2 98 0.1 NW 19 22 10 12 1011.5 1011.7 1.6
28/01:00am 6.9 2.6 6.8 99 0.0 NW 19 22 10 12 1011.9 1012.0 1.6
28/12:30am 7.2 2.7 6.9 98 0.1 NW 20 22 11 12 1011.7 1011.9 1.6
28/12:00am 7.8 3.4 7.5 98 0.1 NW 20 22 11 12 1011.7 1011.9 1.6
 
Date/Time
EST
Temp
°C
App
Temp
°C
Dew
Point
°C
Rel
Hum
%
Delta-T
°C
Wind Press
QNH
hPa
Press
MSL
hPa
Rain since
9am
mm
Dir  Spd
km/h
Gust
km/h
Spd
kts
Gust
kts
27/11:30pm 8.0 4.1 7.2 95 0.4 NW 17 19 9 10 1012.0 1012.1 1.6
27/11:00pm 8.6 4.2 7.2 91 0.7 WNW 20 22 11 12 1012.1 1012.2 1.6
27/10:30pm 9.2 5.3 7.2 87 1.0 NW 17 20 9 11 1012.1 1012.2 1.6
27/10:00pm 9.4 4.9 6.8 84 1.2 NW 20 22 11 12 1012.2 1012.3 1.6
27/09:30pm 9.1 5.1 6.5 84 1.2 NW 17 19 9 10 1012.4 1012.5 1.6
27/09:00pm 9.5 6.0 7.1 85 1.1 NW 15 17 8 9 1012.4 1012.5 1.6
27/08:30pm 9.6 5.7 7.0 84 1.2 NW 17 19 9 10 1012.5 1012.6 1.6
27/08:00pm 9.7 5.6 6.4 80 1.6 WNW 17 20 9 11 1012.5 1012.6 1.6
27/07:30pm 10.3 5.8 6.3 76 1.9 WNW 19 20 10 11 1012.4 1012.5 1.6
27/07:00pm 10.3 6.2 6.1 75 2.0 WNW 17 22 9 12 1012.3 1012.4 1.6
27/06:30pm 10.8 6.3 6.0 72 2.3 WNW 19 20 10 11 1012.3 1012.4 1.6
27/06:00pm 10.7 6.5 5.7 71 2.3 WNW 17 19 9 10 1012.1 1012.2 1.6
27/05:30pm 11.0 6.3 5.1 67 2.7 WNW 19 24 10 13 1012.1 1012.2 1.6
27/05:00pm 12.4 7.6 5.6 63 3.2 W 20 26 11 14 1011.9 1012.0 1.6
27/04:30pm 12.8 8.1 6.2 64 3.2 W 20 28 11 15 1011.6 1011.8 1.6
27/04:00pm 12.9 7.9 6.5 65 3.1 W 22 28 12 15 1011.5 1011.7 1.6
27/03:30pm 12.2 6.4 6.3 67 2.8 W 26 35 14 19 1011.3 1011.5 1.6
27/03:00pm 12.7 7.5 7.2 69 2.7 W 24 33 13 18 1011.2 1011.4 1.6
27/02:30pm 12.6 6.3 7.5 71 2.5 WNW 30 37 16 20 1011.2 1011.4 1.6
27/02:00pm 12.2 6.5 6.9 70 2.6 W 26 35 14 19 1011.1 1011.3 1.6
27/01:30pm 12.4 5.6 7.5 72 2.4 W 33 46 18 25 1011.4 1011.6 1.6
27/01:00pm 12.3 6.7 8.8 79 1.8 W 28 39 15 21 1011.5 1011.7 1.6
27/12:30pm 10.9 4.1 10.6 98 0.2 W 37 46 20 25 1011.3 1011.5 1.6
27/12:00pm 9.7 3.6 9.7 100 0.0 W 32 48 17 26 1011.4 1011.6 1.6
27/11:30am 9.4 3.0 9.4 100 0.0 WSW 33 48 18 26 1011.0 1011.2 1.2
27/11:00am 9.0 3.1 9.0 100 0.0 WSW 30 41 16 22 1011.1 1011.3 0.4
27/10:30am 9.4 5.1 9.4 100 0.0 W 22 32 12 17 1011.1 1011.3 0.0
27/10:00am 9.6 5.9 9.6 100 0.0 WNW 19 22 10 12 1011.1 1011.3 0.0
27/09:30am 9.3 5.6 9.3 100 0.0 WNW 19 24 10 13 1011.0 1011.2 0.0
27/09:00am 8.1 4.1 8.1 100 0.0 WNW 19 24 10 13 1010.8 1011.0 3.8
27/08:30am 7.5 3.1 7.5 100 0.0 WNW 20 26 11 14 1010.6 1010.8 3.8
27/08:00am 6.8 2.8 6.8 100 0.0 W 17 20 9 11 1010.5 1010.6 3.8
27/07:30am 6.2 1.1 6.2 100 0.0 WNW 22 30 12 16 1010.2 1010.3 3.8
27/07:00am 5.6 0.8 5.6 100 0.0 WNW 20 26 11 14 1009.9 1010.0 3.8
27/06:30am 4.8 -0.9 4.8 100 0.0 WNW 24 32 13 17 1009.5 1009.6 3.8
27/06:00am 4.4 -0.6 4.4 100 0.0 WNW 20 24 11 13 1009.1 1009.2 3.8
27/05:30am 3.9 -1.0 3.9 100 0.0 WNW 19 19 10 10 1008.9 1009.0 3.8
27/05:00am 4.0 -0.9 4.0 100 0.0 WNW 19 22 10 12 1008.8 1008.9 3.8
27/04:30am 4.1 -0.8 4.1 100 0.0 WNW 19 22 10 12 1008.6 1008.7 3.8
27/04:00am 4.2 -0.9 4.2 100 0.0 WNW 20 22 11 12 1008.7 1008.8 3.8
27/03:30am 4.5 -0.3 4.5 100 0.0 WNW 19 22 10 12 1008.6 1008.7 3.8
27/03:00am 4.7 -0.1 4.7 100 0.0 WNW 19 24 10 13 1008.5 1008.6 3.6
27/02:30am 4.8 0.0 4.8 100 0.0 WNW 19 22 10 12 1008.6 1008.7 3.6
27/02:00am 4.8 -0.2 4.8 100 0.0 WNW 20 26 11 14 1008.7 1008.8 3.6
27/01:30am 5.0 -0.7 5.0 100 0.0 WNW 24 28 13 15 1008.7 1008.8 3.6
27/01:00am 5.4 0.6 5.4 100 0.0 WNW 20 22 11 12 1009.0 1009.1 3.6
27/12:30am 5.5 1.3 5.5 100 0.0 NW 17 20 9 11 1009.1 1009.2 3.6
27/12:00am 5.6 1.8 5.6 100 0.0 NNW 15 19 8 10 1009.1 1009.2 3.6
 
Date/Time
EST
Temp
°C
App
Temp
°C
Dew
Point
°C
Rel
Hum
%
Delta-T
°C
Wind Press
QNH
hPa
Press
MSL
hPa
Rain since
9am
mm
Dir  Spd
km/h
Gust
km/h
Spd
kts
Gust
kts
26/11:30pm 5.4 1.9 5.4 100 0.0 NNW 13 17 7 9 1009.1 1009.2 3.6
26/11:00pm 5.2 1.6 5.2 100 0.0 NNW 13 17 7 9 1009.2 1009.3 3.6
26/10:30pm 5.4 1.1 5.4 100 0.0 NW 17 19 9 10 1009.3 1009.4 3.6
26/10:00pm 5.4 1.1 5.4 100 0.0 NW 17 19 9 10 1009.4 1009.5 3.6
26/09:30pm 5.5 0.9 5.5 100 0.0 NNW 19 20 10 11 1009.4 1009.5 3.4
26/09:00pm 5.5 1.6 5.2 98 0.1 N 15 17 8 9 1009.3 1009.4 3.4
26/08:30pm 6.0 2.5 5.6 97 0.2 NNW 13 17 7 9 1009.2 1009.3 3.4
26/08:00pm 6.4 2.1 5.2 92 0.5 NNW 17 20 9 11 1008.9 1009.0 3.4
26/07:30pm 6.1 -0.6 5.7 97 0.2 WNW 30 37 16 20 1009.4 1009.5 3.2
26/07:00pm 6.5 -0.5 6.1 97 0.2 WNW 32 39 17 21 1009.7 1009.8 1.4
26/06:30pm 6.5 -1.8 6.2 98 0.1 W 39 52 21 28 1008.6 1008.7 1.2
26/06:24pm 6.5 -2.8 6.1 97 0.2 W 44 59 24 32 1008.6 1008.7 1.0
26/06:08pm 7.9 0.9 7.0 94 0.4 WNW 33 67 18 36 1008.3 1008.4 0.6
26/06:07pm 8.6 2.4 7.8 95 0.4 NW 30 67 16 36 1008.4 1008.5 0.6
26/06:06pm 9.1 3.4 8.3 95 0.4 NW 28 48 15 26 1008.6 1008.7 0.6
26/06:00pm 9.3 4.0 8.4 94 0.4 NW 26 30 14 16 1008.6 1008.7 0.4
26/05:30pm 10.0 1.7 7.8 86 1.1 NNW 41 52 22 28 1007.6 1007.8 0.0
26/05:00pm 11.4 4.1 7.1 75 2.1 NW 35 43 19 23 1007.4 1007.6 0.0
26/04:30pm 12.8 6.9 7.7 71 2.5 NNW 28 33 15 18 1007.4 1007.6 0.0
26/04:00pm 12.7 8.5 7.6 71 2.5 NW 19 20 10 11 1007.5 1007.7 0.0
26/03:30pm 12.7 7.3 6.5 66 3.0 NNW 24 30 13 16 1007.7 1007.9 0.0
26/03:00pm 12.7 6.3 7.0 68 2.8 NW 30 37 16 20 1008.0 1008.1 0.0
26/02:30pm 13.1 9.5 8.2 72 2.5 WNW 17 28 9 15 1008.6 1008.7 0.0
26/02:22pm 11.7 5.5 7.8 77 1.9 NW 30 48 16 26 1008.8 1008.9 0.0
26/02:00pm 13.5 8.4 7.5 67 3.0 NW 24 35 13 19 1008.8 1008.9 0.0
26/01:30pm 11.9 7.6 7.2 73 2.3 WNW 19 28 10 15 1009.4 1009.5 0.0
26/01:00pm 12.8 6.4 7.0 68 2.8 NW 30 37 16 20 1009.6 1009.7 0.0
26/12:30pm 14.6 9.3 8.3 66 3.2 NW 26 37 14 20 1009.9 1010.0 0.0
26/12:00pm 12.7 8.4 7.0 68 2.8 NNW 19 30 10 16 1010.2 1010.3 0.0
26/11:30am 13.2 8.0 7.4 68 2.9 NW 24 33 13 18 1010.7 1010.9 0.0
26/11:00am 12.0 7.6 7.3 73 2.3 NW 20 32 11 17 1011.3 1011.5 0.0
26/10:30am 12.2 8.1 7.9 75 2.1 NW 19 24 10 13 1011.5 1011.7 0.0
26/10:00am 11.5 7.0 7.0 74 2.2 NW 20 28 11 15 1011.6 1011.8 0.0
26/09:30am 11.0 6.7 7.7 80 1.6 NW 20 28 11 15 1011.9 1012.0 0.0
26/09:00am 10.0 6.0 8.4 90 0.8 NW 19 24 10 13 1012.0 1012.1 0.6
26/08:30am 9.1 6.4 8.8 98 0.1 NW 13 17 7 9 1012.1 1012.2 0.6
26/08:00am 7.3 3.8 7.3 100 0.0 NW 15 22 8 12 1011.9 1012.0 0.6
26/07:30am 6.0 1.9 6.0 100 0.0 NW 17 20 9 11 1012.1 1012.2 0.6
26/07:00am 5.6 1.0 5.6 100 0.0 NW 19 22 10 12 1012.2 1012.3 0.6
26/06:30am 5.5 1.3 5.5 100 0.0 NNW 17 20 9 11 1012.2 1012.3 0.6
26/06:00am 5.8 1.9 5.5 98 0.1 NNW 15 17 8 9 1012.2 1012.3 0.6
26/05:30am 6.1 2.6 5.5 96 0.3 NNW 13 15 7 8 1012.1 1012.2 0.6
26/05:00am 6.0 3.2 5.1 94 0.4 NW 9 11 5 6 1011.9 1012.0 0.6
26/04:30am 6.2 3.6 4.0 86 1.0 NW 7 9 4 5 1012.0 1012.1 0.6
26/04:00am 6.8 3.8 4.1 83 1.2 NW 9 9 5 5 1012.0 1012.1 0.6
26/03:30am 7.4 4.8 4.4 81 1.3 NW 7 9 4 5 1012.1 1012.2 0.6
26/03:00am 7.3 4.9 4.4 82 1.3 NW 6 6 3 3 1012.2 1012.3 0.6
26/02:30am 7.3 4.9 4.3 81 1.3 NW 6 6 3 3 1012.5 1012.6 0.6
26/02:00am 7.3 5.3 4.6 83 1.2 NW 4 6 2 3 1012.7 1012.8 0.6
26/01:30am 7.6 5.7 4.7 82 1.3 NW 4 6 2 3 1013.0 1013.1 0.6
26/01:00am 7.1 4.7 5.1 87 0.9 NW 7 11 4 6 1013.5 1013.6 0.2
26/12:30am 7.8 6.2 4.6 80 1.4 SW 2 2 1 1 1013.5 1013.6 0.0
26/12:00am 7.5 6.3 4.5 81 1.3 CALM 0 0 0 0 1013.4 1013.5 0.0
 
Date/Time
EST
Temp
°C
App
Temp
°C
Dew
Point
°C
Rel
Hum
%
Delta-T
°C
Wind Press
QNH
hPa
Press
MSL
hPa
Rain since
9am
mm
Dir  Spd
km/h
Gust
km/h
Spd
kts
Gust
kts
25/11:30pm 8.1 6.3 3.2 71 2.1 SW 2 4 1 2 1013.5 1013.6 0.0
25/11:00pm 8.3 5.7 3.2 70 2.2 SW 6 6 3 3 1013.7 1013.8 0.0
25/10:30pm 8.4 5.8 3.3 70 2.2 SW 6 7 3 4 1013.8 1013.9 0.0
25/10:00pm 8.5 6.0 3.6 71 2.1 SW 6 6 3 3 1013.8 1013.9 0.0

Other Formats:

Comma delimited format used in spreadsheet applications
http://www.bom.gov.au/fwo/IDV60801/IDV60801.95845.axf

JavaScript Object Notation format (JSON) in row-major order
http://www.bom.gov.au/fwo/IDV60801/IDV60801.95845.json